createdAt,value
2018-04-15T00:01:07.699Z,93.90
2018-04-15T00:03:35.104Z,93.80
2018-04-15T00:06:01.790Z,93.50
2018-04-15T00:08:29.238Z,93.30
2018-04-15T00:10:55.952Z,93.20
2018-04-15T00:13:22.604Z,93.20
2018-04-15T00:15:49.515Z,93.10
2018-04-15T00:18:16.196Z,93.20
2018-04-15T00:20:43.688Z,93.20
2018-04-15T00:23:10.318Z,93.20
2018-04-15T00:25:37.702Z,93.40
2018-04-15T00:28:04.366Z,93.30
2018-04-15T00:30:31.091Z,93.40
2018-04-15T00:32:57.739Z,93.40
2018-04-15T00:35:24.505Z,93.60
2018-04-15T00:37:51.131Z,93.80
2018-04-15T00:40:17.859Z,94.10
2018-04-15T00:42:44.527Z,94.20
2018-04-15T00:45:11.273Z,94.60
2018-04-15T00:47:37.920Z,94.60
2018-04-15T00:50:04.623Z,94.70
2018-04-15T00:52:31.288Z,94.80
2018-04-15T00:54:58.130Z,94.90
2018-04-15T00:57:25.008Z,94.80
2018-04-15T00:59:52.416Z,94.90
2018-04-15T01:02:19.081Z,94.90
2018-04-15T01:04:45.780Z,95.10
2018-04-15T01:07:12.566Z,95.30
2018-04-15T01:09:39.267Z,95.60
2018-04-15T01:12:05.967Z,95.70
2018-04-15T01:14:33.407Z,95.70
2018-04-15T01:17:00.826Z,95.60
2018-04-15T01:19:27.507Z,95.60
2018-04-15T01:21:54.161Z,95.60
2018-04-15T01:24:21.004Z,95.60
2018-04-15T01:26:49.659Z,95.90
2018-04-15T01:29:16.323Z,96.00
2018-04-15T01:31:43.684Z,96.00
2018-04-15T01:34:11.348Z,96.00
2018-04-15T01:36:38.088Z,96.00
2018-04-15T01:39:05.547Z,95.90
2018-04-15T01:41:32.247Z,95.90
2018-04-15T01:43:58.842Z,95.90
2018-04-15T01:46:25.509Z,95.90
2018-04-15T01:48:52.186Z,95.90
2018-04-15T01:51:18.919Z,95.90
2018-04-15T01:53:45.570Z,96.00
2018-04-15T01:56:12.547Z,96.00
2018-04-15T01:58:39.380Z,95.90
2018-04-15T02:01:07.046Z,95.90
2018-04-15T02:03:33.991Z,95.90
2018-04-15T02:06:01.562Z,96.10
2018-04-15T02:08:28.409Z,96.00
2018-04-15T02:10:55.343Z,96.10
2018-04-15T02:13:22.287Z,96.20
2018-04-15T02:15:49.131Z,96.20
2018-04-15T02:18:17.717Z,96.30
2018-04-15T02:20:44.664Z,96.20
2018-04-15T02:23:12.326Z,96.20
2018-04-15T02:25:40.408Z,96.20
2018-04-15T02:28:07.350Z,96.10
2018-04-15T02:30:35.007Z,96.80
2018-04-15T02:33:09.740Z,96.50
2018-04-15T02:35:36.792Z,96.50
2018-04-15T02:38:04.660Z,96.20
2018-04-15T02:40:31.701Z,96.00
2018-04-15T02:43:01.518Z,95.80
2018-04-15T02:45:28.460Z,95.60
2018-04-15T02:47:55.305Z,95.80
2018-04-15T02:50:24.300Z,95.60
2018-04-15T02:52:51.872Z,95.50
2018-04-15T02:55:19.830Z,95.40
2018-04-15T02:57:46.690Z,95.60
2018-04-15T03:00:14.654Z,95.60
2018-04-15T03:02:41.604Z,95.20
2018-04-15T03:05:08.438Z,95.60
2018-04-15T03:07:35.385Z,95.70
2018-04-15T03:10:15.442Z,95.80
2018-04-15T03:12:42.282Z,95.80
2018-04-15T03:15:09.238Z,95.70
2018-04-15T03:17:36.071Z,95.50
2018-04-15T03:20:03.964Z,95.80
2018-04-15T03:22:30.881Z,96.00
2018-04-15T03:24:57.828Z,96.00
2018-04-15T03:27:25.386Z,96.60
2018-04-15T03:29:52.335Z,96.60
2018-04-15T03:32:19.893Z,96.60
2018-04-15T03:34:46.738Z,96.60
2018-04-15T03:37:13.475Z,97.20
2018-04-15T03:39:40.425Z,96.70
2018-04-15T03:42:07.371Z,96.90
2018-04-15T03:44:34.932Z,97.30
2018-04-15T03:47:02.610Z,97.10
2018-04-15T03:49:30.261Z,97.30
2018-04-15T03:51:57.209Z,97.20
2018-04-15T03:54:24.253Z,97.50
2018-04-15T03:56:51.200Z,97.30
2018-04-15T03:59:18.864Z,97.10
2018-04-15T04:01:45.910Z,97.10
2018-04-15T04:04:13.678Z,97.90
2018-04-15T04:06:40.520Z,97.90
2018-04-15T04:09:08.182Z,98.00
2018-04-15T04:11:35.847Z,98.10
2018-04-15T04:14:02.589Z,98.10
2018-04-15T04:16:30.250Z,97.10
2018-04-15T04:19:10.304Z,96.90
2018-04-15T04:21:49.435Z,96.80
2018-04-15T04:24:29.495Z,97.10
2018-04-15T04:26:56.339Z,97.50
2018-04-15T04:29:23.285Z,97.90
2018-04-15T04:31:50.020Z,98.30
2018-04-15T04:34:17.583Z,98.40
2018-04-15T04:36:46.268Z,98.40
2018-04-15T04:39:13.112Z,98.30
2018-04-15T04:41:39.956Z,98.40
2018-04-15T04:44:06.799Z,97.80
2018-04-15T04:46:33.746Z,97.40
2018-04-15T04:49:00.694Z,97.40
2018-04-15T04:51:27.539Z,98.20
2018-04-15T04:53:54.583Z,98.30
2018-04-15T04:56:22.247Z,97.40
2018-04-15T04:58:49.807Z,97.40
2018-04-15T05:01:16.754Z,97.40
2018-04-15T05:03:43.699Z,97.80
2018-04-15T05:06:10.458Z,98.20
2018-04-15T05:08:37.491Z,98.30
2018-04-15T05:11:04.440Z,98.30
2018-04-15T05:13:31.997Z,97.90
2018-04-15T05:15:58.844Z,97.90
2018-04-15T05:18:26.405Z,97.50
2018-04-15T05:20:53.346Z,97.50
2018-04-15T05:23:21.125Z,98.00
2018-04-15T05:25:48.058Z,98.40
2018-04-15T05:28:15.005Z,97.90
2018-04-15T05:30:42.477Z,98.40
2018-04-15T05:33:09.306Z,98.30
2018-04-15T05:35:36.253Z,98.60
2018-04-15T05:38:03.305Z,98.40
2018-04-15T05:40:30.250Z,98.50
2018-04-15T05:42:57.091Z,98.40
2018-04-15T05:45:24.039Z,98.80
2018-04-15T05:47:50.814Z,98.60
2018-04-15T05:50:17.731Z,98.70
2018-04-15T05:52:44.572Z,98.80
2018-04-15T05:55:11.520Z,98.60
2018-04-15T05:57:39.178Z,98.30
2018-04-15T06:00:05.938Z,98.30
2018-04-15T06:02:32.865Z,98.10
2018-04-15T06:04:59.815Z,98.00
2018-04-15T06:07:26.858Z,97.80
2018-04-15T06:09:53.805Z,97.60
2018-04-15T06:12:20.753Z,97.40
2018-04-15T06:14:47.596Z,97.20
2018-04-15T06:17:15.261Z,96.70
2018-04-15T06:19:43.852Z,96.50
2018-04-15T06:22:10.800Z,96.50
2018-04-15T06:24:37.805Z,96.30
2018-04-15T06:27:04.685Z,96.30
2018-04-15T06:29:31.526Z,96.10
2018-04-15T06:31:59.087Z,95.90
2018-04-15T06:34:26.033Z,95.90
2018-04-15T06:36:53.014Z,95.90
2018-04-15T06:39:19.923Z,95.90
2018-04-15T06:41:47.587Z,95.70
2018-04-15T06:44:14.431Z,95.70
2018-04-15T06:46:41.177Z,95.40
2018-04-15T06:49:08.221Z,95.20
2018-04-15T06:51:35.679Z,94.90
2018-04-15T06:54:03.342Z,94.50
2018-04-15T06:56:31.007Z,94.50
2018-04-15T06:58:58.674Z,94.50
2018-04-15T07:01:25.511Z,94.40
2018-04-15T07:03:52.253Z,94.30
2018-04-15T07:06:19.916Z,93.30
2018-04-15T07:08:46.760Z,93.30
2018-04-15T07:11:13.705Z,93.30
2018-04-15T07:13:41.267Z,92.20
2018-04-15T07:16:08.314Z,92.20
2018-04-15T07:18:35.779Z,91.90
2018-04-15T07:21:02.480Z,91.90
2018-04-15T07:23:29.461Z,92.00
2018-04-15T07:25:56.304Z,90.80
2018-04-15T07:28:23.967Z,85.20
2018-04-15T07:30:51.530Z,84.50
2018-04-15T07:33:18.472Z,84.50
2018-04-15T07:35:46.239Z,83.30
2018-04-15T07:38:13.192Z,83.20
2018-04-15T07:40:40.131Z,80.10
2018-04-15T07:43:11.629Z,80.90
2018-04-15T07:45:38.533Z,80.90
2018-04-15T07:48:06.193Z,82.30
2018-04-15T07:50:33.757Z,82.70
2018-04-15T07:53:01.519Z,82.80
2018-04-15T07:55:28.978Z,80.40
2018-04-15T07:57:56.539Z,82.40
2018-04-15T08:00:24.201Z,82.20
2018-04-15T08:02:51.761Z,78.20
2018-04-15T08:05:22.599Z,78.20
2018-04-15T08:07:49.445Z,76.50
2018-04-15T08:10:16.285Z,77.60
2018-04-15T08:12:43.777Z,74.10
2018-04-15T08:15:10.607Z,74.00
2018-04-15T08:17:37.535Z,71.30
2018-04-15T08:20:04.482Z,68.60
2018-04-15T08:22:31.945Z,65.80
2018-04-15T08:24:58.885Z,66.50
2018-04-15T08:27:25.831Z,67.30
2018-04-15T08:29:53.392Z,67.70
2018-04-15T08:32:20.308Z,67.70
2018-04-15T08:34:47.184Z,69.00
2018-04-15T08:37:14.130Z,69.10
2018-04-15T08:39:41.074Z,69.20
2018-04-15T08:42:07.923Z,68.90
2018-04-15T08:44:34.762Z,70.40
2018-04-15T08:47:01.607Z,69.80
2018-04-15T08:49:28.554Z,65.70
2018-04-15T08:51:55.399Z,64.70
2018-04-15T08:54:22.341Z,61.30
2018-04-15T08:56:50.007Z,61.00
2018-04-15T08:59:17.668Z,66.10
2018-04-15T09:01:46.254Z,60.00
2018-04-15T09:04:12.998Z,59.90
2018-04-15T09:06:40.247Z,58.60
2018-04-15T09:09:07.012Z,55.20
2018-04-15T09:11:34.143Z,50.80
2018-04-15T09:14:01.087Z,50.00
2018-04-15T09:16:27.929Z,51.90
2018-04-15T09:18:55.696Z,50.40
2018-04-15T09:21:22.539Z,50.40
2018-04-15T09:23:49.383Z,49.70
2018-04-15T09:26:16.227Z,48.40
2018-04-15T09:28:43.173Z,49.70
2018-04-15T09:31:11.970Z,51.00
2018-04-15T09:33:38.909Z,53.20
2018-04-15T09:36:05.660Z,51.30
2018-04-15T09:38:32.598Z,49.50
2018-04-15T09:40:59.549Z,49.70
2018-04-15T09:43:26.391Z,50.20
2018-04-15T09:45:53.332Z,50.60
2018-04-15T09:48:20.276Z,51.30
2018-04-15T09:50:47.017Z,50.30
2018-04-15T09:53:14.600Z,51.60
2018-04-15T09:55:41.437Z,51.60
2018-04-15T09:58:08.369Z,50.80
2018-04-15T10:00:35.930Z,51.80
2018-04-15T10:03:03.492Z,53.20
2018-04-15T10:05:31.255Z,53.30
2018-04-15T10:07:58.817Z,52.50
2018-04-15T10:10:25.766Z,52.50
2018-04-15T10:12:52.504Z,53.10
2018-04-15T10:15:19.353Z,53.90
2018-04-15T10:17:46.089Z,53.50
2018-04-15T10:20:13.036Z,54.30
2018-04-15T10:22:40.698Z,53.60
2018-04-15T10:25:08.367Z,54.50
2018-04-15T10:27:35.316Z,54.40
2018-04-15T10:30:02.255Z,54.20
2018-04-15T10:32:29.105Z,54.00
2018-04-15T10:34:56.044Z,55.40
2018-04-15T10:37:23.707Z,54.50
2018-04-15T10:39:50.761Z,54.50
2018-04-15T10:42:17.513Z,54.40
2018-04-15T10:44:44.447Z,56.00
2018-04-15T10:47:11.291Z,56.20
2018-04-15T10:49:38.240Z,54.00
2018-04-15T10:52:05.185Z,54.20
2018-04-15T10:54:32.127Z,53.30
2018-04-15T10:56:59.895Z,52.70
2018-04-15T10:59:26.842Z,52.70
2018-04-15T11:01:54.401Z,52.80
2018-04-15T11:04:21.346Z,52.80
2018-04-15T11:06:48.191Z,52.90
2018-04-15T11:09:19.847Z,53.80
2018-04-15T11:11:47.509Z,51.60
2018-04-15T11:14:14.253Z,51.50
2018-04-15T11:16:41.300Z,52.80
2018-04-15T11:19:08.963Z,53.10
2018-04-15T11:21:36.115Z,52.90
2018-04-15T11:24:02.957Z,53.10
2018-04-15T11:26:29.824Z,53.20
2018-04-15T11:28:56.709Z,54.00
2018-04-15T11:31:23.594Z,53.30
2018-04-15T11:33:50.540Z,54.00
2018-04-15T11:36:17.485Z,53.90
2018-04-15T11:38:44.326Z,53.60
2018-04-15T11:41:11.376Z,55.80
2018-04-15T11:43:38.228Z,59.00
2018-04-15T11:46:05.169Z,51.60
2018-04-15T11:48:32.009Z,50.30
2018-04-15T11:50:58.956Z,49.60
2018-04-15T11:53:25.823Z,48.60
2018-04-15T11:55:52.848Z,48.40
2018-04-15T11:58:19.798Z,54.70
2018-04-15T12:00:46.650Z,49.00
2018-04-15T12:03:13.585Z,50.40
2018-04-15T12:05:40.532Z,47.70
2018-04-15T12:08:07.375Z,46.00
2018-04-15T12:10:38.115Z,44.30
2018-04-15T12:13:05.055Z,35.00
2018-04-15T12:15:32.725Z,34.10
2018-04-15T12:17:59.665Z,34.10
2018-04-15T12:20:26.718Z,35.30
2018-04-15T12:22:53.660Z,35.90
2018-04-15T12:25:20.708Z,40.50
2018-04-15T12:27:52.570Z,37.60
2018-04-15T12:30:19.519Z,37.60
2018-04-15T12:32:46.464Z,41.10
2018-04-15T12:35:13.246Z,38.50
2018-04-15T12:37:40.159Z,41.10
2018-04-15T12:40:08.122Z,42.00
2018-04-15T12:42:34.971Z,41.90
2018-04-15T12:45:02.018Z,36.10
2018-04-15T12:47:29.166Z,34.80
2018-04-15T12:49:56.114Z,36.90
2018-04-15T12:52:22.854Z,32.50
2018-04-15T12:54:49.696Z,34.50
2018-04-15T12:57:17.359Z,39.60
2018-04-15T12:59:45.125Z,34.80
2018-04-15T13:02:12.787Z,33.30
2018-04-15T13:04:40.354Z,36.20
2018-04-15T13:07:07.298Z,36.20
2018-04-15T13:09:34.248Z,37.00
2018-04-15T13:12:05.077Z,35.00
2018-04-15T13:14:32.126Z,35.90
2018-04-15T13:16:59.315Z,37.30
2018-04-15T13:19:26.227Z,36.90
2018-04-15T13:21:53.170Z,38.70
2018-04-15T13:24:20.120Z,36.50
2018-04-15T13:26:47.060Z,38.30
2018-04-15T13:29:14.723Z,36.90
2018-04-15T13:31:41.569Z,36.90
2018-04-15T13:34:09.231Z,35.40
2018-04-15T13:36:36.893Z,37.00
2018-04-15T13:39:05.786Z,35.10
2018-04-15T13:41:33.448Z,33.50
2018-04-15T13:44:01.111Z,35.20
2018-04-15T13:46:28.057Z,35.20
2018-04-15T13:48:55.111Z,30.50
2018-04-15T13:51:22.053Z,32.50
2018-04-15T13:53:49.722Z,30.10
2018-04-15T13:56:16.661Z,30.10
2018-04-15T13:58:43.622Z,30.70
2018-04-15T14:01:10.666Z,31.90
2018-04-15T14:03:37.508Z,32.30
2018-04-15T14:06:05.162Z,34.00
2018-04-15T14:08:32.108Z,34.00
2018-04-15T14:10:59.053Z,34.20
2018-04-15T14:13:26.008Z,37.30
2018-04-15T14:15:52.948Z,34.30
2018-04-15T14:18:20.021Z,35.30
2018-04-15T14:20:47.438Z,35.20
2018-04-15T14:23:14.506Z,35.80
2018-04-15T14:25:41.551Z,39.30
2018-04-15T14:28:08.410Z,37.80
2018-04-15T14:30:35.442Z,38.00
2018-04-15T14:33:02.311Z,36.40
2018-04-15T14:35:29.336Z,36.90
2018-04-15T14:37:56.391Z,38.10
2018-04-15T14:40:23.235Z,39.00
2018-04-15T14:42:50.072Z,38.70
2018-04-15T14:45:17.128Z,38.10
2018-04-15T14:47:44.167Z,40.20
2018-04-15T14:50:11.852Z,41.30
2018-04-15T14:52:38.787Z,41.30
2018-04-15T14:55:05.728Z,40.60
2018-04-15T14:57:32.580Z,39.00
2018-04-15T14:59:59.620Z,39.40
2018-04-15T15:02:26.665Z,41.10
2018-04-15T15:04:53.532Z,41.00
2018-04-15T15:07:20.460Z,40.60
2018-04-15T15:09:48.224Z,42.80
2018-04-15T15:12:15.171Z,42.60
2018-04-15T15:14:42.929Z,39.50
2018-04-15T15:17:10.082Z,39.50
2018-04-15T15:19:37.147Z,41.70
2018-04-15T15:22:04.188Z,40.80
2018-04-15T15:24:31.228Z,41.40
2018-04-15T15:26:58.007Z,43.00
2018-04-15T15:29:25.426Z,41.30
2018-04-15T15:31:53.190Z,39.70
2018-04-15T15:34:20.342Z,42.00
2018-04-15T15:36:47.391Z,41.00
2018-04-15T15:39:14.447Z,42.70
2018-04-15T15:41:41.389Z,43.00
2018-04-15T15:44:08.848Z,44.30
2018-04-15T15:46:36.726Z,44.80
2018-04-15T15:49:03.760Z,44.80
2018-04-15T15:51:31.340Z,41.30
2018-04-15T15:53:58.267Z,41.20
2018-04-15T15:56:25.324Z,43.00
2018-04-15T15:58:52.363Z,44.00
2018-04-15T16:01:19.269Z,44.00
2018-04-15T16:03:46.869Z,44.00
2018-04-15T16:06:14.640Z,43.70
2018-04-15T16:08:41.786Z,43.70
2018-04-15T16:11:09.040Z,44.10
2018-04-15T16:13:36.191Z,43.10
2018-04-15T16:16:03.136Z,42.10
2018-04-15T16:18:30.194Z,43.60
2018-04-15T16:20:57.246Z,45.30
2018-04-15T16:23:24.487Z,46.40
2018-04-15T16:25:52.252Z,46.80
2018-04-15T16:28:19.507Z,46.80
2018-04-15T16:30:46.453Z,46.70
2018-04-15T16:33:13.501Z,47.90
2018-04-15T16:35:40.653Z,48.20
2018-04-15T16:38:08.212Z,49.90
2018-04-15T16:40:35.056Z,49.30
2018-04-15T16:43:02.105Z,49.90
2018-04-15T16:45:29.666Z,51.20
2018-04-15T16:47:56.799Z,51.20
2018-04-15T16:50:23.967Z,51.20
2018-04-15T16:52:51.079Z,51.90
2018-04-15T16:55:18.070Z,51.60
2018-04-15T16:57:45.427Z,51.60
2018-04-15T17:00:12.436Z,51.80
2018-04-15T17:02:39.615Z,51.60
2018-04-15T17:05:06.771Z,51.60
2018-04-15T17:07:33.937Z,51.70
2018-04-15T17:10:01.788Z,52.20
2018-04-15T17:12:28.748Z,52.30
2018-04-15T17:14:55.784Z,52.40
2018-04-15T17:17:23.872Z,52.30
2018-04-15T17:19:50.904Z,52.50
2018-04-15T17:22:17.865Z,52.80
2018-04-15T17:24:44.806Z,53.00
2018-04-15T17:27:11.752Z,53.10
2018-04-15T17:32:36.226Z,53.80
2018-04-15T17:35:03.073Z,54.20
2018-04-15T17:37:29.628Z,55.10
2018-04-15T17:39:56.144Z,54.90
2018-04-15T17:42:22.626Z,54.60
2018-04-15T17:44:49.185Z,54.80
2018-04-15T17:47:15.718Z,55.10
2018-04-15T17:49:42.242Z,55.70
2018-04-15T17:52:09.492Z,56.90
2018-04-15T17:54:36.832Z,57.00
2018-04-15T17:57:03.344Z,57.00
2018-04-15T17:59:29.828Z,57.60
2018-04-15T18:01:56.455Z,58.40
2018-04-15T18:04:22.896Z,58.80
2018-04-15T18:06:50.116Z,59.90
2018-04-15T18:09:16.607Z,59.80
2018-04-15T18:11:43.133Z,60.30
2018-04-15T18:14:09.690Z,61.00
2018-04-15T18:16:36.236Z,61.70
2018-04-15T18:19:02.787Z,62.80
2018-04-15T18:21:29.284Z,63.60
2018-04-15T18:23:55.817Z,64.50
2018-04-15T18:26:22.421Z,65.30
2018-04-15T18:28:49.744Z,67.20
2018-04-15T18:31:16.241Z,67.20
2018-04-15T18:33:43.485Z,69.80
2018-04-15T18:36:11.739Z,69.30
2018-04-15T18:38:38.228Z,69.30
2018-04-15T18:41:04.751Z,69.80
2018-04-15T18:43:31.299Z,70.20
2018-04-15T18:45:57.809Z,71.30
2018-04-15T18:48:25.053Z,72.80
2018-04-15T18:50:51.542Z,72.80
2018-04-15T18:53:18.050Z,73.80
2018-04-15T18:55:44.565Z,75.00
2018-04-15T18:58:11.876Z,76.50
2018-04-15T19:00:38.334Z,76.50
2018-04-15T19:03:04.822Z,77.10
2018-04-15T19:05:31.292Z,77.50
2018-04-15T19:07:57.883Z,77.60
2018-04-15T19:10:24.405Z,77.00
2018-04-15T19:12:50.887Z,77.60
2018-04-15T19:15:17.348Z,78.90
2018-04-15T19:17:44.063Z,79.40
2018-04-15T19:20:10.603Z,79.80
2018-04-15T19:22:37.160Z,80.40
2018-04-15T19:25:03.647Z,80.90
2018-04-15T19:27:30.140Z,80.80
2018-04-15T19:29:56.588Z,80.40
2018-04-15T19:32:23.302Z,81.40
2018-04-15T19:34:49.735Z,82.90
2018-04-15T19:37:16.298Z,82.20
2018-04-15T19:39:43.480Z,82.70
2018-04-15T19:42:09.958Z,82.70
2018-04-15T19:44:39.678Z,82.70
2018-04-15T19:47:06.705Z,82.80
2018-04-15T19:49:33.205Z,83.50
2018-04-15T19:51:59.896Z,83.10
2018-04-15T19:54:26.328Z,84.00
2018-04-15T19:56:52.848Z,84.70
2018-04-15T19:59:19.323Z,85.00
2018-04-15T20:01:46.637Z,85.30
2018-04-15T20:04:13.150Z,85.20
2018-04-15T20:06:39.608Z,85.00
2018-04-15T20:09:06.105Z,85.60
2018-04-15T20:11:33.314Z,86.00
2018-04-15T20:13:59.856Z,85.90
2018-04-15T20:16:26.479Z,86.80
2018-04-15T20:18:53.025Z,86.40
2018-04-15T20:21:20.236Z,86.30
2018-04-15T20:23:46.725Z,86.20
2018-04-15T20:26:13.149Z,86.40
2018-04-15T20:28:39.604Z,85.80
2018-04-15T20:31:06.991Z,86.40
2018-04-15T20:33:33.437Z,85.50
2018-04-15T20:35:59.957Z,85.50
2018-04-15T20:38:26.463Z,85.90
2018-04-15T20:40:53.069Z,86.50
2018-04-15T20:43:19.826Z,86.30
2018-04-15T20:45:46.275Z,86.50
2018-04-15T20:48:12.780Z,85.80
2018-04-15T20:50:39.215Z,86.40
2018-04-15T20:53:05.722Z,87.10
2018-04-15T20:55:36.108Z,87.20
2018-04-15T20:58:02.584Z,87.50
2018-04-15T21:00:29.033Z,87.50
2018-04-15T21:02:55.541Z,87.20
2018-04-15T21:05:22.856Z,88.10
2018-04-15T21:07:50.210Z,88.40
2018-04-15T21:10:16.719Z,88.20
2018-04-15T21:12:43.197Z,88.30
2018-04-15T21:15:09.636Z,89.00
2018-04-15T21:17:37.920Z,89.40
2018-04-15T21:20:07.168Z,89.30
2018-04-15T21:22:33.661Z,89.30
2018-04-15T21:25:00.127Z,89.20
2018-04-15T21:27:26.642Z,89.10
2018-04-15T21:29:54.219Z,89.20
2018-04-15T21:32:20.801Z,89.10
2018-04-15T21:34:48.028Z,89.10
2018-04-15T21:37:14.536Z,89.10
2018-04-15T21:39:41.021Z,89.10
2018-04-15T21:42:07.508Z,89.60
2018-04-15T21:44:33.960Z,90.10
2018-04-15T21:47:00.458Z,90.20
2018-04-15T21:49:27.643Z,90.40
2018-04-15T21:51:54.087Z,90.30
2018-04-15T21:54:20.575Z,90.40
2018-04-15T21:56:47.799Z,90.70
2018-04-15T21:59:14.305Z,90.20
2018-04-15T22:01:40.812Z,90.30
2018-04-15T22:04:08.097Z,90.40
2018-04-15T22:06:34.551Z,90.30
2018-04-15T22:09:01.052Z,90.40
2018-04-15T22:11:39.729Z,90.50
2018-04-15T22:14:06.190Z,90.60
2018-04-15T22:16:37.310Z,90.80
2018-04-15T22:19:04.544Z,91.10
2018-04-15T22:21:31.008Z,91.10
2018-04-15T22:23:58.272Z,91.40
2018-04-15T22:26:25.496Z,91.10
2018-04-15T22:28:52.056Z,91.10
2018-04-15T22:31:18.496Z,91.00
2018-04-15T22:33:45.695Z,91.40
2018-04-15T22:36:12.136Z,91.40
2018-04-15T22:38:38.613Z,91.40
2018-04-15T22:41:05.789Z,90.90
2018-04-15T22:43:32.277Z,90.90
2018-04-15T22:45:58.705Z,90.80
2018-04-15T22:48:36.004Z,91.50
2018-04-15T22:51:02.464Z,91.50
2018-04-15T22:53:29.754Z,92.00
2018-04-15T22:55:56.253Z,92.00
2018-04-15T22:58:23.503Z,92.80
2018-04-15T23:00:50.701Z,92.90
2018-04-15T23:03:21.841Z,92.80
2018-04-15T23:05:48.279Z,92.80
2018-04-15T23:08:14.743Z,92.70
2018-04-15T23:10:41.975Z,93.20
2018-04-15T23:13:08.524Z,92.90
2018-04-15T23:15:35.007Z,93.00
2018-04-15T23:18:02.244Z,92.80
2018-04-15T23:20:28.693Z,92.80
2018-04-15T23:22:55.899Z,93.10
2018-04-15T23:25:22.356Z,92.70
2018-04-15T23:27:48.883Z,92.50
2018-04-15T23:30:15.344Z,92.70
2018-04-15T23:32:42.563Z,93.50
2018-04-15T23:35:09.776Z,93.70
2018-04-15T23:37:36.242Z,93.70
2018-04-15T23:40:02.723Z,93.90
2018-04-15T23:42:30.044Z,93.90
2018-04-15T23:44:56.469Z,93.90
2018-04-15T23:47:22.928Z,93.70
2018-04-15T23:49:49.334Z,93.70
2018-04-15T23:52:15.799Z,93.70
2018-04-15T23:54:42.220Z,93.50
2018-04-15T23:57:08.792Z,93.60
2018-04-15T23:59:35.984Z,93.50
